• Join FlightAware (Why Join?)
  • Login
  • US Flag 
01:12PM EDT


 

Airport Tracker/Info


-or-


 

Live Flight TrackerFlight Track Log ✈ N6628Y ✈ 29-Apr-2012 ✈ KTLH - KFPR

Flight Track Log - Related Links

Times and Time Zones

All times are in EDT time to prevent confusion due to time zone crossing. See the N6628Y flight status page for this flight to view local times or setup timezone preferences in your user account.

Time Position Orientation Groundspeed Altitude Reporting Facility
EDT Latitude Longitude Course Direction KTS MPH feet Rate Location/Type
12:48AM 30.3444 -84.2933 125° Southeast 129 148 3,600  Level Jacksonville Center
12:49AM 30.3300 -84.2692 123° Southeast 115 132 4,600 960 Climbing Jacksonville Center
12:50AM 30.3136 -84.2400 141° Southeast 104 120 5,600 900 Climbing Jacksonville Center
12:51AM 30.2931 -84.2206 129° Southeast 99 114 6,400 600 Climbing Jacksonville Center
12:52AM 30.2725 -84.1914 115° Southeast 105 121 6,900 240 Climbing Jacksonville Center
12:53AM 30.2581 -84.1550 128° Southeast 116 133 6,900  Level Jacksonville Center
12:54AM 30.2356 -84.1211 139° Southeast 122 140 7,000  Climbing Jacksonville Center
12:55AM 30.2086 -84.0944 132° Southeast 127 146 6,900 -60 Descending Jacksonville Center
12:56AM 30.1839 -84.0628 128° Southeast 133 153 6,900  Level Jacksonville Center
12:57AM 30.1611 -84.0289 130° Southeast 133 153 7,000  Climbing Jacksonville Center
12:58AM 30.1386 -83.9975 128° Southeast 133 153 7,000  Level Jacksonville Center
12:59AM 30.1158 -83.9636 132° Southeast 133 153 7,000  Level Jacksonville Center
01:00AM 30.0911 -83.9319 128° Southeast 133 153 7,000  Level Jacksonville Center
01:01AM 30.0683 -83.8983 132° Southeast 133 153 7,000 -60 Level Jacksonville Center
01:02AM 30.0436 -83.8667 125° Southeast 133 153 6,900 -60 Descending Jacksonville Center
01:03AM 30.0231 -83.8331 128° Southeast 133 153 6,900  Level Jacksonville Center
01:04AM 30.0003 -83.7992 127° Southeast 133 153 6,900  Level Jacksonville Center
01:05AM 29.9794 -83.7678 132° Southeast 133 153 6,900  Level Jacksonville Center
01:06AM 29.9547 -83.7364 125° Southeast 133 153 7,000  Climbing Jacksonville Center
01:07AM 29.9342 -83.7028 130° Southeast 133 153 7,000  Level Jacksonville Center
01:08AM 29.9092 -83.6689 132° Southeast 133 153 7,000  Level Jacksonville Center
01:09AM 29.8864 -83.6400 128° Southeast 133 153 7,000  Level Jacksonville Center
01:10AM 29.8636 -83.6064 130° Southeast 133 153 7,000  Level Jacksonville Center
01:11AM 29.8408 -83.5750 128° Southeast 133 153 7,000  Level Jacksonville Center
01:12AM 29.8181 -83.5414 125° Southeast 133 153 7,000  Level Jacksonville Center
01:13AM 29.7975 -83.5078 128° Southeast 133 153 7,000  Level Jacksonville Center
01:14AM 29.7744 -83.4742 130° Southeast 133 153 7,000  Level Jacksonville Center
01:15AM 29.7517 -83.4428 126° Southeast 133 153 7,000  Level Jacksonville Center
01:16AM 29.7289 -83.4067 130° Southeast 133 153 7,000 -60 Level Jacksonville Center
01:17AM 29.7061 -83.3756 131° Southeast 133 153 6,900  Descending Jacksonville Center
01:18AM 29.6811 -83.3419 133° Southeast 133 153 7,000  Climbing Jacksonville Center
01:19AM 29.6561 -83.3108 128° Southeast 133 153 7,000 -60 Level Jacksonville Center
01:20AM 29.6333 -83.2772 127° Southeast 133 153 6,900 -120 Descending Jacksonville Center
01:21AM 29.6208 -83.2581 128° Southeast 134 154 6,900  Level Jacksonville Center
01:22AM 29.5981 -83.2247 126° Southeast 134 154 6,900  Level Jacksonville Center
01:23AM 29.5750 -83.1886 130° Southeast 136 157 6,900  Level Jacksonville Center
01:24AM 29.5522 -83.1575 131° Southeast 134 154 6,900  Level Jacksonville Center
01:25AM 29.5272 -83.1242 131° Southeast 133 153 6,900  Level Jacksonville Center
01:26AM 29.5022 -83.0906 131° Southeast 137 158 6,900  Level Jacksonville Center
01:27AM 29.4753 -83.0547 128° Southeast 139 160 6,900  Level Jacksonville Center
01:28AM 29.4522 -83.0214 128° Southeast 137 158 7,000  Climbing Jacksonville Center
01:29AM 29.4292 -82.9881 130° Southeast 136 157 6,900 -60 Descending Jacksonville Center
01:30AM 29.4042 -82.9544 128° Southeast 135 155 6,900  Level Jacksonville Center
01:31AM 29.3814 -82.9211 133° Southeast 135 155 6,900  Level Jacksonville Center
01:32AM 29.3564 -82.8903 133° Southeast 137 158 6,900  Level Jacksonville Center
01:33AM 29.3292 -82.8569 129° Southeast 137 158 6,900  Level Jacksonville Center
01:34AM 29.3042 -82.8211 131° Southeast 137 158 6,900  Level Jacksonville Center
01:35AM 29.2789 -82.7878 124° Southeast 137 158 6,900  Level Jacksonville Center
01:36AM 29.2581 -82.7522 131° Southeast 136 157 6,900  Level Jacksonville Center
01:37AM 29.2331 -82.7189 131° Southeast 136 157 6,900  Level Jacksonville Center
01:38AM 29.2100 -82.6881 131° Southeast 135 155 6,900  Level Jacksonville Center
01:39AM 29.1869 -82.6572 129° Southeast 136 157 6,900  Level Jacksonville Center
01:40AM 29.1619 -82.6214 131° Southeast 135 155 6,900  Level Jacksonville Center
01:41AM 29.1389 -82.5906 131° Southeast 136 157 6,900  Level Jacksonville Center
01:42AM 29.1136 -82.5575 127° Southeast 136 157 6,900  Level Jacksonville Center
01:43AM 29.0906 -82.5219 129° Southeast 138 159 6,900  Level Jacksonville Center
01:44AM 29.0656 -82.4864 131° Southeast 137 158 6,900  Level Jacksonville Center
01:45AM 29.0403 -82.4531 126° Southeast 135 155 6,900  Level Jacksonville Center
01:46AM 29.0194 -82.4200 131° Southeast 134 154 6,900  Level Jacksonville Center
01:47AM 28.9942 -82.3869 129° Southeast 135 155 6,900  Level Jacksonville Center
01:48AM 28.9711 -82.3539 131° Southeast 134 154 6,900  Level Jacksonville Center
01:49AM 28.9458 -82.3208 129° Southeast 134 154 6,900  Level Jacksonville Center
01:55AM 28.8000 -82.1167 127° Southeast 138 159 6,900  Level Orlando TRACON
01:56AM 28.7667 -82.0667 120° Southeast 138 159 6,900  Level Orlando TRACON
01:57AM 28.7500 -82.0333 139° Southeast 139 160 6,900  Level Orlando TRACON
01:58AM 28.7167 -82.0000 120° Southeast 137 158 6,900  Level Orlando TRACON
01:59AM 28.7000 -81.9667 156° South 135 155 6,900  Level Orlando TRACON
02:00AM 28.6667 -81.9500 120° Southeast 136 157 6,900  Level Orlando TRACON
02:01AM 28.6500 -81.9167 139° Southeast 134 154 6,900  Level Orlando TRACON
02:02AM 28.6167 -81.8833 120° Southeast 134 154 6,900  Level Orlando TRACON
02:03AM 28.6000 -81.8500 139° Southeast 134 154 6,900  Level Orlando TRACON
02:04AM 28.5667 -81.8167 120° Southeast 135 155 6,900  Level Orlando TRACON
02:05AM 28.5500 -81.7833 120° Southeast 133 153 6,900  Level Orlando TRACON
02:06AM 28.5333 -81.7500 139° Southeast 132 152 6,900  Level Orlando TRACON
02:07AM 28.5000 -81.7167 120° Southeast 132 152 6,900  Level Orlando TRACON
02:08AM 28.4833 -81.6833 139° Southeast 133 153 6,900  Level Orlando TRACON
02:09AM 28.4500 -81.6500 120° Southeast 131 151 6,900  Level Orlando TRACON
02:10AM 28.4333 -81.6167 120° Southeast 130 150 6,900  Level Orlando TRACON
02:11AM 28.4167 -81.5833 139° Southeast 131 151 6,900  Level Orlando TRACON
02:12AM 28.3833 -81.5500 139° Southeast 130 150 6,900  Level Orlando TRACON
02:13AM 28.3667 -81.5333 139° Southeast 131 151 6,900  Level Orlando TRACON
02:14AM 28.3333 -81.5000 120° Southeast 127 146 6,900  Level Orlando TRACON
02:15AM 28.3167 -81.4667 120° Southeast 128 147 6,900  Level Orlando TRACON
02:16AM 28.3000 -81.4333 139° Southeast 130 150 6,900  Level Orlando TRACON
02:17AM 28.2667 -81.4000 120° Southeast 129 148 6,900  Level Orlando TRACON
02:18AM 28.2500 -81.3667 139° Southeast 131 151 7,000 -360 Climbing Orlando TRACON
02:19AM 28.2167 -81.3333 120° Southeast 146 168 6,200 -840 Descending Orlando TRACON
02:20AM 28.2000 -81.3000 136° Southeast 139 160 5,400 -840 Descending Orlando TRACON
02:22AM 28.1522 -81.2483 123° Southeast 140 161 4,000 -540 Descending Miami Center
02:23AM 28.1344 -81.2169 131° Southeast 134 154 4,000 -60 Level Miami Center
02:24AM 28.1142 -81.1903 130° Southeast 123 142 3,900 -60 Descending Miami Center
02:25AM 28.0942 -81.1636 130° Southeast 118 136 3,900  Level Miami Center
02:26AM 28.0742 -81.1369 127° Southeast 118 136 3,900  Level Miami Center
02:27AM 28.0561 -81.1103 133° Southeast 118 136 3,900  Level Miami Center
02:28AM 28.0381 -81.0886 133° Southeast 118 136 4,000 60 Climbing Miami Center